^^
Station Historical Data
 
Daily Summary for October 20, 2017 Units:  Both    English   Metric
« Previous Day
Next Day »
Daily Weekly Monthly Yearly Custom
  Current: High: Low: Average:
Temperature: 81.5 °F /  27.5 °C 81.5 °F /  27.5 °C 50.7 °F /  10.4 °C 59.1 °F /  15.1 °C
Dew Point: 17.2 °F /  -8.2 °C 21.7 °F /  -5.7 °C 13.8 °F /  -10.1 °C 19.6 °F /  -6.9 °C
Humidity: 9% 30% 9% 23%
Wind Speed: 0.9mph /  1.4km/h 4.0mph /  6.4km/h - 0.2mph /  0.3km/h
Wind Gust: 12.0mph /  19.3km/h 12.0mph /  19.3km/h - -
WindNorth - - WSW
Pressure: 29.84 in /  1010.4 hPa 29.85 in /  1010.7 hPa 29.80 in /  1009 hPa -
Precipitation: 0.00 in /  0 mm      
Historical Graphs
 
 
Tabular Data for October 20, 2017
Time Temperature Dew Point Pressure Wind Wind Speed Wind Gust Humidity Rainfall Rate (Hourly) solar Conditions
00:04 59.7 °F /  15.4 °C 20.8 °F /  -6.2 °C 29.85in /  1010.7hPa East 0.9mph /  1.4km/h 1.0mph /  1.6km/h 22% 0.00in /  0mm 0.0 W/m2
00:09 59.4 °F /  15.2 °C 20.5 °F /  -6.4 °C 29.84in /  1010.4hPa Calm   1.0mph /  1.6km/h 22% 0.00in /  0mm 0.0 W/m2
00:14 59.2 °F /  15.1 °C 20.3 °F /  -6.5 °C 29.84in /  1010.4hPa Calm     22% 0.00in /  0mm 0.0 W/m2
00:20 59.0 °F /  15 °C 20.1 °F /  -6.6 °C 29.84in /  1010.4hPa Calm   1.0mph /  1.6km/h 22% 0.00in /  0mm 0.0 W/m2
00:25 58.8 °F /  14.9 °C 20.1 °F /  -6.6 °C 29.84in /  1010.4hPa Calm   1.0mph /  1.6km/h 22% 0.00in /  0mm 0.0 W/m2
00:30 58.6 °F /  14.8 °C 19.9 °F /  -6.7 °C 29.84in /  1010.4hPa Calm   1.0mph /  1.6km/h 22% 0.00in /  0mm 0.0 W/m2
00:35 58.6 °F /  14.8 °C 21.0 °F /  -6.1 °C 29.84in /  1010.4hPa Calm   1.0mph /  1.6km/h 23% 0.00in /  0mm 0.0 W/m2
00:41 58.5 °F /  14.7 °C 20.8 °F /  -6.2 °C 29.84in /  1010.4hPa Calm   1.0mph /  1.6km/h 23% 0.00in /  0mm 0.0 W/m2
00:46 58.5 °F /  14.7 °C 20.8 °F /  -6.2 °C 29.84in /  1010.4hPa Calm   1.0mph /  1.6km/h 23% 0.00in /  0mm 0.0 W/m2
00:51 58.3 °F /  14.6 °C 20.7 °F /  -6.3 °C 29.84in /  1010.4hPa Calm   1.0mph /  1.6km/h 23% 0.00in /  0mm 0.0 W/m2
00:56 58.3 °F /  14.6 °C 20.7 °F /  -6.3 °C 29.84in /  1010.4hPa Calm     23% 0.00in /  0mm 0.0 W/m2
01:01 57.9 °F /  14.4 °C 20.3 °F /  -6.5 °C 29.84in /  1010.4hPa Calm     23% 0.00in /  0mm 0.0 W/m2
01:06 57.7 °F /  14.3 °C 20.1 °F /  -6.6 °C 29.83in /  1010hPa Calm     23% 0.00in /  0mm 0.0 W/m2
01:10 57.6 °F /  14.2 °C 21.0 °F /  -6.1 °C 29.83in /  1010hPa Calm     24% 0.00in /  0mm 0.0 W/m2
01:15 57.6 °F /  14.2 °C 21.0 °F /  -6.1 °C 29.83in /  1010hPa Calm   2.0mph /  3.2km/h 24% 0.00in /  0mm 0.0 W/m2
01:20 57.2 °F /  14 °C 20.7 °F /  -6.3 °C 29.83in /  1010hPa Calm   1.0mph /  1.6km/h 24% 0.00in /  0mm 0.0 W/m2
01:25 57.0 °F /  13.9 °C 20.5 °F /  -6.4 °C 29.83in /  1010hPa Calm   1.0mph /  1.6km/h 24% 0.00in /  0mm 0.0 W/m2
01:31 56.7 °F /  13.7 °C 20.3 °F /  -6.5 °C 29.83in /  1010hPa Calm   1.0mph /  1.6km/h 24% 0.00in /  0mm 0.0 W/m2
01:36 56.7 °F /  13.7 °C 20.3 °F /  -6.5 °C 29.83in /  1010hPa Calm     24% 0.00in /  0mm 0.0 W/m2
01:41 56.5 °F /  13.6 °C 20.1 °F /  -6.6 °C 29.83in /  1010hPa Calm   2.0mph /  3.2km/h 24% 0.00in /  0mm 0.0 W/m2
01:46 56.1 °F /  13.4 °C 20.8 °F /  -6.2 °C 29.83in /  1010hPa Calm     25% 0.00in /  0mm 0.0 W/m2
01:51 55.9 °F /  13.3 °C 19.6 °F /  -6.9 °C 29.83in /  1010hPa Calm   1.0mph /  1.6km/h 24% 0.00in /  0mm 0.0 W/m2
01:56 55.6 °F /  13.1 °C 20.3 °F /  -6.5 °C 29.83in /  1010hPa Calm   1.0mph /  1.6km/h 25% 0.00in /  0mm 0.0 W/m2
02:01 55.6 °F /  13.1 °C 20.3 °F /  -6.5 °C 29.83in /  1010hPa Calm     25% 0.00in /  0mm 0.0 W/m2
02:06 55.4 °F /  13 °C 21.0 °F /  -6.1 °C 29.82in /  1009.7hPa Calm     26% 0.00in /  0mm 0.0 W/m2
02:11 55.2 °F /  12.9 °C 19.9 °F /  -6.7 °C 29.82in /  1009.7hPa Calm     25% 0.00in /  0mm 0.0 W/m2
02:17 55.2 °F /  12.9 °C 20.8 °F /  -6.2 °C 29.82in /  1009.7hPa Calm     26% 0.00in /  0mm 0.0 W/m2
02:22 55.2 °F /  12.9 °C 20.8 °F /  -6.2 °C 29.82in /  1009.7hPa Calm   1.0mph /  1.6km/h 26% 0.00in /  0mm 0.0 W/m2
02:27 55.0 °F /  12.8 °C 20.8 °F /  -6.2 °C 29.82in /  1009.7hPa Calm     26% 0.00in /  0mm 0.0 W/m2
02:32 55.0 °F /  12.8 °C 20.8 °F /  -6.2 °C 29.81in /  1009.4hPa Calm     26% 0.00in /  0mm 0.0 W/m2
02:37 54.7 °F /  12.6 °C 20.5 °F /  -6.4 °C 29.82in /  1009.7hPa Calm     26% 0.00in /  0mm 0.0 W/m2
02:42 54.3 °F /  12.4 °C 20.1 °F /  -6.6 °C 29.81in /  1009.4hPa Calm     26% 0.00in /  0mm 0.0 W/m2
02:47 54.1 °F /  12.3 °C 20.8 °F /  -6.2 °C 29.81in /  1009.4hPa Calm     27% 0.00in /  0mm 0.0 W/m2
02:52 54.0 °F /  12.2 °C 20.7 °F /  -6.3 °C 29.81in /  1009.4hPa Calm   1.0mph /  1.6km/h 27% 0.00in /  0mm 0.0 W/m2
02:57 54.0 °F /  12.2 °C 20.7 °F /  -6.3 °C 29.81in /  1009.4hPa Calm     27% 0.00in /  0mm 0.0 W/m2
03:02 54.0 °F /  12.2 °C 20.7 °F /  -6.3 °C 29.81in /  1009.4hPa Calm     27% 0.00in /  0mm 0.0 W/m2
03:07 53.8 °F /  12.1 °C 20.7 °F /  -6.3 °C 29.81in /  1009.4hPa Calm     27% 0.00in /  0mm 0.0 W/m2
03:13 53.8 °F /  12.1 °C 20.7 °F /  -6.3 °C 29.81in /  1009.4hPa Calm   1.0mph /  1.6km/h 27% 0.00in /  0mm 0.0 W/m2
03:18 53.4 °F /  11.9 °C 20.3 °F /  -6.5 °C 29.80in /  1009hPa Calm   1.0mph /  1.6km/h 27% 0.00in /  0mm 0.0 W/m2
03:23 53.2 °F /  11.8 °C 20.1 °F /  -6.6 °C 29.80in /  1009hPa Calm     27% 0.00in /  0mm 0.0 W/m2
03:28 53.2 °F /  11.8 °C 20.1 °F /  -6.6 °C 29.80in /  1009hPa Calm   2.0mph /  3.2km/h 27% 0.00in /  0mm 0.0 W/m2
03:33 53.2 °F /  11.8 °C 20.1 °F /  -6.6 °C 29.80in /  1009hPa Calm     27% 0.00in /  0mm 0.0 W/m2
03:38 53.2 °F /  11.8 °C 21.0 °F /  -6.1 °C 29.81in /  1009.4hPa Calm     28% 0.00in /  0mm 0.0 W/m2
03:43 53.1 °F /  11.7 °C 19.9 °F /  -6.7 °C 29.80in /  1009hPa Calm   3.0mph /  4.8km/h 27% 0.00in /  0mm 0.0 W/m2
03:48 53.1 °F /  11.7 °C 19.9 °F /  -6.7 °C 29.80in /  1009hPa Calm     27% 0.00in /  0mm 0.0 W/m2
03:54 52.9 °F /  11.6 °C 20.7 °F /  -6.3 °C 29.80in /  1009hPa Calm     28% 0.00in /  0mm 0.0 W/m2
03:59 52.9 °F /  11.6 °C 20.7 °F /  -6.3 °C 29.80in /  1009hPa Calm   1.0mph /  1.6km/h 28% 0.00in /  0mm 0.0 W/m2
04:09 52.5 °F /  11.4 °C 20.3 °F /  -6.5 °C 29.80in /  1009hPa Calm   1.0mph /  1.6km/h 28% 0.00in /  0mm 0.0 W/m2
04:14 52.5 °F /  11.4 °C 20.3 °F /  -6.5 °C 29.80in /  1009hPa ESE 0.9mph /  1.4km/h 2.0mph /  3.2km/h 28% 0.00in /  0mm 0.0 W/m2
04:19 52.5 °F /  11.4 °C 20.3 °F /  -6.5 °C 29.80in /  1009hPa Calm     28% 0.00in /  0mm 0.0 W/m2
04:24 52.5 °F /  11.4 °C 21.2 °F /  -6 °C 29.80in /  1009hPa Calm     29% 0.00in /  0mm 0.0 W/m2
04:30 52.3 °F /  11.3 °C 21.0 °F /  -6.1 °C 29.80in /  1009hPa Calm     29% 0.00in /  0mm 0.0 W/m2
04:35 52.3 °F /  11.3 °C 20.1 °F /  -6.6 °C 29.80in /  1009hPa Calm     28% 0.00in /  0mm 0.0 W/m2
04:40 52.3 °F /  11.3 °C 21.0 °F /  -6.1 °C 29.80in /  1009hPa Calm     29% 0.00in /  0mm 0.0 W/m2
04:45 52.3 °F /  11.3 °C 20.1 °F /  -6.6 °C 29.80in /  1009hPa Calm     28% 0.00in /  0mm 0.0 W/m2
04:50 52.3 °F /  11.3 °C 20.1 °F /  -6.6 °C 29.80in /  1009hPa Calm     28% 0.00in /  0mm 0.0 W/m2
04:55 52.3 °F /  11.3 °C 20.1 °F /  -6.6 °C 29.80in /  1009hPa Calm     28% 0.00in /  0mm 0.0 W/m2
05:00 52.2 °F /  11.2 °C 20.1 °F /  -6.6 °C 29.80in /  1009hPa Calm   3.0mph /  4.8km/h 28% 0.00in /  0mm 0.0 W/m2
05:05 52.2 °F /  11.2 °C 20.8 °F /  -6.2 °C 29.80in /  1009hPa Calm     29% 0.00in /  0mm 0.0 W/m2
05:14 52.0 °F /  11.1 °C 19.9 °F /  -6.7 °C 29.81in /  1009.4hPa Calm     28% 0.00in /  0mm 0.0 W/m2
05:20 51.8 °F /  11 °C 19.8 °F /  -6.8 °C 29.81in /  1009.4hPa ESE 0.9mph /  1.4km/h 2.0mph /  3.2km/h 28% 0.00in /  0mm 0.0 W/m2
05:25 51.8 °F /  11 °C 18.9 °F /  -7.3 °C 29.81in /  1009.4hPa Calm     27% 0.00in /  0mm 0.0 W/m2
05:26 51.8 °F /  11 °C 19.8 °F /  -6.8 °C 29.81in /  1009.4hPa Calm     28% 0.00in /  0mm 0.0 W/m2
05:30 52.0 °F /  11.1 °C 19.9 °F /  -6.7 °C 29.81in /  1009.4hPa Calm     28% 0.00in /  0mm 0.0 W/m2
05:35 51.8 °F /  11 °C 20.5 °F /  -6.4 °C 29.82in /  1009.7hPa Calm     29% 0.00in /  0mm 0.0 W/m2
05:40 51.6 °F /  10.9 °C 20.3 °F /  -6.5 °C 29.82in /  1009.7hPa Calm     29% 0.00in /  0mm 0.0 W/m2
05:45 51.3 °F /  10.7 °C 20.1 °F /  -6.6 °C 29.82in /  1009.7hPa Calm     29% 0.00in /  0mm 0.0 W/m2
05:51 51.3 °F /  10.7 °C 19.2 °F /  -7.1 °C 29.82in /  1009.7hPa Calm   1.0mph /  1.6km/h 28% 0.00in /  0mm 0.0 W/m2
05:56 51.3 °F /  10.7 °C 20.1 °F /  -6.6 °C 29.82in /  1009.7hPa Calm     29% 0.00in /  0mm 0.0 W/m2
06:01 51.1 °F /  10.6 °C 19.9 °F /  -6.7 °C 29.83in /  1010hPa Calm     29% 0.00in /  0mm 0.0 W/m2
06:07 50.9 °F /  10.5 °C 18.9 °F /  -7.3 °C 29.82in /  1009.7hPa Calm     28% 0.00in /  0mm 0.0 W/m2
06:12 50.7 °F /  10.4 °C 18.9 °F /  -7.3 °C 29.83in /  1010hPa Calm     28% 0.00in /  0mm 0.0 W/m2
06:17 50.7 °F /  10.4 °C 18.9 °F /  -7.3 °C 29.82in /  1009.7hPa Calm     28% 0.00in /  0mm 0.0 W/m2
06:22 50.7 °F /  10.4 °C 19.6 °F /  -6.9 °C 29.83in /  1010hPa Calm     29% 0.00in /  0mm 5.0 W/m2
06:27 50.9 °F /  10.5 °C 18.9 °F /  -7.3 °C 29.83in /  1010hPa Calm   2.0mph /  3.2km/h 28% 0.00in /  0mm 7.0 W/m2
06:32 51.1 °F /  10.6 °C 19.9 °F /  -6.7 °C 29.83in /  1010hPa Calm     29% 0.00in /  0mm 11.0 W/m2
06:37 50.9 °F /  10.5 °C 19.8 °F /  -6.8 °C 29.83in /  1010hPa Calm     29% 0.00in /  0mm 12.0 W/m2
06:42 50.9 °F /  10.5 °C 19.8 °F /  -6.8 °C 29.84in /  1010.4hPa Calm     29% 0.00in /  0mm 14.0 W/m2
06:48 51.1 °F /  10.6 °C 19.9 °F /  -6.7 °C 29.84in /  1010.4hPa Calm     29% 0.00in /  0mm 16.0 W/m2
06:53 51.3 °F /  10.7 °C 19.2 °F /  -7.1 °C 29.84in /  1010.4hPa Calm     28% 0.00in /  0mm 18.0 W/m2
06:59 51.4 °F /  10.8 °C 18.5 °F /  -7.5 °C 29.84in /  1010.4hPa Calm   1.0mph /  1.6km/h 27% 0.00in /  0mm 19.0 W/m2
07:04 51.6 °F /  10.9 °C 19.6 °F /  -6.9 °C 29.84in /  1010.4hPa Calm     28% 0.00in /  0mm 21.0 W/m2
07:09 51.8 °F /  11 °C 19.8 °F /  -6.8 °C 29.84in /  1010.4hPa Calm     28% 0.00in /  0mm 23.0 W/m2
07:14 52.2 °F /  11.2 °C 21.7 °F /  -5.7 °C 29.84in /  1010.4hPa Calm     30% 0.00in /  0mm 23.0 W/m2
07:19 52.3 °F /  11.3 °C 20.1 °F /  -6.6 °C 29.84in /  1010.4hPa Calm   1.0mph /  1.6km/h 28% 0.00in /  0mm 25.0 W/m2
07:24 53.1 °F /  11.7 °C 20.8 °F /  -6.2 °C 29.84in /  1010.4hPa Calm   1.0mph /  1.6km/h 28% 0.00in /  0mm 26.0 W/m2
07:30 53.8 °F /  12.1 °C 20.7 °F /  -6.3 °C 29.84in /  1010.4hPa Calm   3.0mph /  4.8km/h 27% 0.00in /  0mm 26.0 W/m2
07:35 54.7 °F /  12.6 °C 20.5 °F /  -6.4 °C 29.84in /  1010.4hPa Calm   2.0mph /  3.2km/h 26% 0.00in /  0mm 28.0 W/m2
07:40 55.6 °F /  13.1 °C 20.3 °F /  -6.5 °C 29.85in /  1010.7hPa Calm   1.0mph /  1.6km/h 25% 0.00in /  0mm 28.0 W/m2
07:45 56.3 °F /  13.5 °C 20.8 °F /  -6.2 °C 29.85in /  1010.7hPa Calm   2.0mph /  3.2km/h 25% 0.00in /  0mm 32.0 W/m2
07:50 57.4 °F /  14.1 °C 20.8 °F /  -6.2 °C 29.84in /  1010.4hPa Calm   1.0mph /  1.6km/h 24% 0.00in /  0mm 30.0 W/m2
07:55 58.1 °F /  14.5 °C 19.4 °F /  -7 °C 29.85in /  1010.7hPa Calm   1.0mph /  1.6km/h 22% 0.00in /  0mm 30.0 W/m2
08:00 59.2 °F /  15.1 °C 20.3 °F /  -6.5 °C 29.85in /  1010.7hPa Calm     22% 0.00in /  0mm 32.0 W/m2
08:05 60.3 °F /  15.7 °C 20.1 °F /  -6.6 °C 29.85in /  1010.7hPa Calm     21% 0.00in /  0mm 32.0 W/m2
08:11 61.2 °F /  16.2 °C 20.8 °F /  -6.2 °C 29.85in /  1010.7hPa Calm     21% 0.00in /  0mm 33.0 W/m2
08:16 62.1 °F /  16.7 °C 20.5 °F /  -6.4 °C 29.85in /  1010.7hPa Calm     20% 0.00in /  0mm 37.0 W/m2
08:21 62.6 °F /  17 °C 19.8 °F /  -6.8 °C 29.85in /  1010.7hPa Calm   1.0mph /  1.6km/h 19% 0.00in /  0mm 88.0 W/m2
08:27 63.5 °F /  17.5 °C 20.5 °F /  -6.4 °C 29.85in /  1010.7hPa NNE 0.9mph /  1.4km/h 1.0mph /  1.6km/h 19% 0.00in /  0mm 485.0 W/m2
08:32 64.4 °F /  18 °C 19.9 °F /  -6.7 °C 29.85in /  1010.7hPa Calm   1.0mph /  1.6km/h 18% 0.00in /  0mm 504.0 W/m2
08:37 65.8 °F /  18.8 °C 21.2 °F /  -6 °C 29.85in /  1010.7hPa Calm   1.0mph /  1.6km/h 18% 0.00in /  0mm 524.0 W/m2
08:42 67.6 °F /  19.8 °C 19.8 °F /  -6.8 °C 29.85in /  1010.7hPa Calm   1.0mph /  1.6km/h 16% 0.00in /  0mm 545.0 W/m2
08:47 69.1 °F /  20.6 °C 19.4 °F /  -7 °C 29.85in /  1010.7hPa Calm     15% 0.00in /  0mm 564.0 W/m2
08:52 70.0 °F /  21.1 °C 18.5 °F /  -7.5 °C 29.85in /  1010.7hPa Calm   1.0mph /  1.6km/h 14% 0.00in /  0mm 582.0 W/m2
08:57 71.1 °F /  21.7 °C 17.8 °F /  -7.9 °C 29.85in /  1010.7hPa Calm   2.0mph /  3.2km/h 13% 0.00in /  0mm 601.0 W/m2
09:03 72.0 °F /  22.2 °C 18.5 °F /  -7.5 °C 29.85in /  1010.7hPa Calm   3.0mph /  4.8km/h 13% 0.00in /  0mm 619.0 W/m2
09:08 72.1 °F /  22.3 °C 16.7 °F /  -8.5 °C 29.85in /  1010.7hPa Calm     12% 0.00in /  0mm 635.0 W/m2
09:13 72.7 °F /  22.6 °C 17.1 °F /  -8.3 °C 29.85in /  1010.7hPa West 2.9mph /  4.7km/h 3.0mph /  4.8km/h 12% 0.00in /  0mm 654.0 W/m2
09:18 72.9 °F /  22.7 °C 17.2 °F /  -8.2 °C 29.85in /  1010.7hPa Calm   2.0mph /  3.2km/h 12% 0.00in /  0mm 671.0 W/m2
09:23 73.2 °F /  22.9 °C 17.6 °F /  -8 °C 29.85in /  1010.7hPa Calm   2.0mph /  3.2km/h 12% 0.00in /  0mm 689.0 W/m2
09:28 73.6 °F /  23.1 °C 17.8 °F /  -7.9 °C 29.85in /  1010.7hPa Calm   2.0mph /  3.2km/h 12% 0.00in /  0mm 708.0 W/m2
09:33 74.3 °F /  23.5 °C 18.3 °F /  -7.6 °C 29.85in /  1010.7hPa NNW 2.0mph /  3.2km/h 2.0mph /  3.2km/h 12% 0.00in /  0mm 722.0 W/m2
09:38 75.4 °F /  24.1 °C 17.2 °F /  -8.2 °C 29.85in /  1010.7hPa NNW 0.9mph /  1.4km/h 2.0mph /  3.2km/h 11% 0.00in /  0mm 737.0 W/m2
09:44 76.6 °F /  24.8 °C 16.0 °F /  -8.9 °C 29.85in /  1010.7hPa Calm   1.0mph /  1.6km/h 10% 0.00in /  0mm 751.0 W/m2
09:49 77.2 °F /  25.1 °C 14.0 °F /  -10 °C 29.85in /  1010.7hPa West 0.9mph /  1.4km/h 3.0mph /  4.8km/h 9% 0.00in /  0mm 768.0 W/m2
09:54 77.2 °F /  25.1 °C 14.0 °F /  -10 °C 29.84in /  1010.4hPa WNW 2.9mph /  4.7km/h 6.0mph /  9.7km/h 9% 0.00in /  0mm 779.0 W/m2
09:59 77.0 °F /  25 °C 13.8 °F /  -10.1 °C 29.84in /  1010.4hPa Calm   6.0mph /  9.7km/h 9% 0.00in /  0mm 795.0 W/m2
10:04 77.4 °F /  25.2 °C 14.2 °F /  -9.9 °C 29.84in /  1010.4hPa Calm   4.0mph /  6.4km/h 9% 0.00in /  0mm 809.0 W/m2
10:09 77.7 °F /  25.4 °C 14.4 °F /  -9.8 °C 29.84in /  1010.4hPa Calm   1.0mph /  1.6km/h 9% 0.00in /  0mm 824.0 W/m2
10:14 78.3 °F /  25.7 °C 14.7 °F /  -9.6 °C 29.84in /  1010.4hPa North 2.0mph /  3.2km/h 4.0mph /  6.4km/h 9% 0.00in /  0mm 838.0 W/m2
10:19 78.6 °F /  25.9 °C 15.1 °F /  -9.4 °C 29.84in /  1010.4hPa Calm   3.0mph /  4.8km/h 9% 0.00in /  0mm 847.0 W/m2
10:25 79.3 °F /  26.3 °C 18.0 °F /  -7.8 °C 29.84in /  1010.4hPa Calm   7.0mph /  11.3km/h 10% 0.00in /  0mm 861.0 W/m2
10:31 80.1 °F /  26.7 °C 18.5 °F /  -7.5 °C 29.84in /  1010.4hPa WNW 2.0mph /  3.2km/h 5.0mph /  8km/h 10% 0.00in /  0mm 877.0 W/m2
10:36 80.4 °F /  26.9 °C 18.9 °F /  -7.3 °C 29.84in /  1010.4hPa Calm   1.0mph /  1.6km/h 10% 0.00in /  0mm 889.0 W/m2
10:41 80.8 °F /  27.1 °C 16.7 °F /  -8.5 °C 29.84in /  1010.4hPa NNW 4.0mph /  6.4km/h 5.0mph /  8km/h 9% 0.00in /  0mm 900.0 W/m2
10:46 81.1 °F /  27.3 °C 16.9 °F /  -8.4 °C 29.84in /  1010.4hPa Calm   2.0mph /  3.2km/h 9% 0.00in /  0mm 909.0 W/m2
10:51 81.5 °F /  27.5 °C 17.2 °F /  -8.2 °C 29.84in /  1010.4hPa North 0.9mph /  1.4km/h 12.0mph /  19.3km/h 9% 0.00in /  0mm 923.0 W/m2
Olympia, Windhoek, Namibia
Compliments of Weather Underground - 2.5 mb